< < Back
Terminal Aerodrome Forecast


Current Version              Previous Versions:   1  2  3  4  5  6  7  8  9  

Terminal Aerodrome Forecast

034
FTUS42 KJAX 231700
TAFGNV
TAF
KGNV 231729Z 2318/2418 18011KT P6SM BKN025
     FM232000 19013KT P6SM SCT030 BKN250
     FM240600 19008KT 3SM BR BKN005
     FM241600 21012KT P6SM BKN015=

Latest METAR

148
SAUS70 KWBC 231900 RRG
MTRGNV
METAR KGNV 231853Z 19011G19KT 10SM SCT029 BKN060 BKN100 27/21 A2986 RMK
AO2 SLP109 T02720211


USA.gov is the U.S. government's official web portal to all federal, state and local government web resources and services.